Carnival Splendor — 3EUS — position and weather

sailwx.info

Track history (hours):
 
Tides and Currents Weather Stations Pressure Air Temp Water Temp Dewpoint Dewpoint Depression Visibility Wind Speed Wind Dir Waves Ship Positions

Carnival Splendor

Last reported at 2017-Sep-25 23:13 UTC. Time now 2017-Sep-26 05:56 UTC.
Position N 20°22' W 087°05'.

Length 289 m; draft 8.3 m.

Type: Ship. MMSI: 372808000.

Date/timePositionNaut miles runAvg speedWind from/ knotsBaromVisibWave heightAir tempDewpointWater temp
2017-Sep-25 23:13N 20°22' W 087°05'315.3
2017-Sep-25 23:01N 20°25' W 087°03'612.4
2017-Sep-25 22:31N 20°29' W 086°59'1 1.4
2017-Sep-25 21:58N 20°29' W 086°59'0 0.0
2017-Sep-25 21:25N 20°29' W 086°59'0 0.0
2017-Sep-25 20:58N 20°29' W 086°59'0 0.0
2017-Sep-25 20:28N 20°29' W 086°59'0 0.0
2017-Sep-25 19:57N 20°29' W 086°59'0 0.0
2017-Sep-25 19:30N 20°29' W 086°59'0 0.0
2017-Sep-25 19:00N 20°29' W 086°59'0 0.0
2017-Sep-25 18:30N 20°29' W 086°59'0 0.0
2017-Sep-25 18:00N 20°29' W 086°59'0 0.0
2017-Sep-25 17:29N 20°29' W 086°59'0 0.0
2017-Sep-25 16:59N 20°29' W 086°59'9 1.4
2017-Sep-25 11:00N 20°36' W 086°54'33113.8 130 / 201008.0 5.4 27.521.330.0
2017-Sep-24 11:00N 23°36' W 081°54'1817.5 180 / 101009.0 5.4 28.022.029.0
2017-Sep-24 10:00N 23°42' W 081°36'15114.7 180 / 101009.0 5.4 27.922.329.0
2017-Sep-23 23:41N 25°30' W 079°39'415.8
2017-Sep-23 23:27N 25°33' W 079°40'715.4
2017-Sep-23 23:00N 25°40' W 079°40'815.5
2017-Sep-23 22:30N 25°48' W 079°41'815.4
2017-Sep-23 22:00N 25°54' W 079°46'815.7
2017-Sep-23 21:30N 25°59' W 079°53'816.7
2017-Sep-23 21:00N 26°03' W 080°01'611.6
2017-Sep-23 20:30N 26°06' W 080°07'1 1.1
2017-Sep-23 19:58N 26°06' W 080°07'6 0.7
2017-Sep-23 12:00N 26°00' W 080°06'418 8.5 050 / 51009.0 5.4 28.522.129.0
2017-Sep-21 11:00N 19°06' W 081°12'26811.2 050 / 151011.0 5.4 29.220.730.0
2017-Sep-20 11:00N 18°42' W 076°30'24310.1 350 / 101012.0 5.4 28.720.830.0
2017-Sep-19 11:00N 22°30' W 078°00'21017.2 330 / 121012.0 5.4 26.722.929.0
2017-Sep-18 22:47N 25°33' W 079°52'516.3
2017-Sep-18 22:30N 25°38' W 079°54'917.7
2017-Sep-18 22:00N 25°46' W 079°56'918.4
2017-Sep-18 21:30N 25°55' W 079°59'917.8
2017-Sep-18 21:00N 26°03' W 080°02'5 0.9
2017-Sep-18 15:36N 26°06' W 080°07'0 0.0
2017-Sep-18 15:24N 26°06' W 080°07'0 0.0
2017-Sep-18 15:00N 26°06' W 080°07'0 0.0
2017-Sep-18 14:30N 26°06' W 080°07'0 0.0
2017-Sep-18 13:56N 26°06' W 080°07'0 0.0
2017-Sep-18 13:26N 26°06' W 080°07'0 0.0
2017-Sep-18 12:50N 26°06' W 080°07'0 0.0
2017-Sep-18 12:29N 26°06' W 080°07'0 0.0
2017-Sep-18 11:58N 26°06' W 080°07'0 0.0
2017-Sep-18 11:28N 26°06' W 080°07'1 2.4
2017-Sep-18 11:00N 26°06' W 080°06'115.5 320 / 51009.010.8 27.722.629.0
2017-Sep-18 10:55N 26°06' W 080°07'0 0.0
2017-Sep-18 10:25N 26°06' W 080°07'0 0.0
2017-Sep-18 10:01N 26°06' W 080°07'0 0.8
2017-Sep-18 09:30N 26°05' W 080°07'4 7.8
2017-Sep-18 09:00N 26°06' W 080°03'4 8.4
2017-Sep-18 08:30N 26°06' W 079°58'714.8
2017-Sep-18 08:01N 26°08' W 079°50'816.0
2017-Sep-18 07:30N 26°10' W 079°41'817.0
2017-Sep-18 07:00N 26°12' W 079°32'917.1
2017-Sep-18 06:30N 26°14' W 079°23'207 4.6
2017-Sep-16 09:00N 24°48' W 075°54'   330 / 151011.0 28.123.529.0
Track history (hours):
 
Tides and Currents Weather Stations Pressure Air Temp Water Temp Dewpoint Dewpoint Depression Visibility Wind Speed Wind Dir Waves Ship Positions

Carnival Splendor

Last reported at 2017-Sep-25 23:13 UTC. Time now 2017-Sep-26 05:56 UTC.
Position N 20°22' W 087°05'.

Length 289 m; draft 8.3 m.

Type: Ship. MMSI: 372808000.

Date/timePositionNaut miles runAvg speedWind from/ knotsBaromVisibWave heightAir tempDewpointWater temp
2017-Sep-25 23:13N 20°22' W 087°05'315.3
2017-Sep-25 23:01N 20°25' W 087°03'612.4
2017-Sep-25 22:31N 20°29' W 086°59'1 1.4
2017-Sep-25 21:58N 20°29' W 086°59'0 0.0
2017-Sep-25 21:25N 20°29' W 086°59'0 0.0
2017-Sep-25 20:58N 20°29' W 086°59'0 0.0
2017-Sep-25 20:28N 20°29' W 086°59'0 0.0
2017-Sep-25 19:57N 20°29' W 086°59'0 0.0
2017-Sep-25 19:30N 20°29' W 086°59'0 0.0
2017-Sep-25 19:00N 20°29' W 086°59'0 0.0
2017-Sep-25 18:30N 20°29' W 086°59'0 0.0
2017-Sep-25 18:00N 20°29' W 086°59'0 0.0
2017-Sep-25 17:29N 20°29' W 086°59'0 0.0
2017-Sep-25 16:59N 20°29' W 086°59'9 1.4
2017-Sep-25 11:00N 20°36' W 086°54'33113.8 130 / 201008.0 5.4 27.521.330.0
2017-Sep-24 11:00N 23°36' W 081°54'1817.5 180 / 101009.0 5.4 28.022.029.0
2017-Sep-24 10:00N 23°42' W 081°36'15114.7 180 / 101009.0 5.4 27.922.329.0
2017-Sep-23 23:41N 25°30' W 079°39'415.8
2017-Sep-23 23:27N 25°33' W 079°40'715.4
2017-Sep-23 23:00N 25°40' W 079°40'815.5
2017-Sep-23 22:30N 25°48' W 079°41'815.4
2017-Sep-23 22:00N 25°54' W 079°46'815.7
2017-Sep-23 21:30N 25°59' W 079°53'816.7
2017-Sep-23 21:00N 26°03' W 080°01'611.6
2017-Sep-23 20:30N 26°06' W 080°07'1 1.1
2017-Sep-23 19:58N 26°06' W 080°07'6 0.7
2017-Sep-23 12:00N 26°00' W 080°06'418 8.5 050 / 51009.0 5.4 28.522.129.0
2017-Sep-21 11:00N 19°06' W 081°12'26811.2 050 / 151011.0 5.4 29.220.730.0
2017-Sep-20 11:00N 18°42' W 076°30'24310.1 350 / 101012.0 5.4 28.720.830.0
2017-Sep-19 11:00N 22°30' W 078°00'21017.2 330 / 121012.0 5.4 26.722.929.0
2017-Sep-18 22:47N 25°33' W 079°52'516.3
2017-Sep-18 22:30N 25°38' W 079°54'917.7
2017-Sep-18 22:00N 25°46' W 079°56'918.4
2017-Sep-18 21:30N 25°55' W 079°59'917.8
2017-Sep-18 21:00N 26°03' W 080°02'5 0.9
2017-Sep-18 15:36N 26°06' W 080°07'0 0.0
2017-Sep-18 15:24N 26°06' W 080°07'0 0.0
2017-Sep-18 15:00N 26°06' W 080°07'0 0.0
2017-Sep-18 14:30N 26°06' W 080°07'0 0.0
2017-Sep-18 13:56N 26°06' W 080°07'0 0.0
2017-Sep-18 13:26N 26°06' W 080°07'0 0.0
2017-Sep-18 12:50N 26°06' W 080°07'0 0.0
2017-Sep-18 12:29N 26°06' W 080°07'0 0.0
2017-Sep-18 11:58N 26°06' W 080°07'0 0.0
2017-Sep-18 11:28N 26°06' W 080°07'1 2.4
2017-Sep-18 11:00N 26°06' W 080°06'115.5 320 / 51009.010.8 27.722.629.0
2017-Sep-18 10:55N 26°06' W 080°07'0 0.0
2017-Sep-18 10:25N 26°06' W 080°07'0 0.0
2017-Sep-18 10:01N 26°06' W 080°07'0 0.8
2017-Sep-18 09:30N 26°05' W 080°07'4 7.8
2017-Sep-18 09:00N 26°06' W 080°03'4 8.4
2017-Sep-18 08:30N 26°06' W 079°58'714.8
2017-Sep-18 08:01N 26°08' W 079°50'816.0
2017-Sep-18 07:30N 26°10' W 079°41'817.0
2017-Sep-18 07:00N 26°12' W 079°32'917.1
2017-Sep-18 06:30N 26°14' W 079°23'207 4.6
2017-Sep-16 09:00N 24°48' W 075°54'   330 / 151011.0 28.123.529.0

Dump ship's entire track history